<?xml version="1.0" encoding="UTF-8" standalone="no" ?>
<gpx xmlns="http://www.topografix.com/GPX/1/1" xmlns:xsi="http://www.w3.org/2001/XMLSchema-instance" xsi:schemaLocation="http://www.topografix.com/GPX/1/1 http://www.topografix.com/GPX/1/1/gpx.xsd" version="1.1" creator="VisuGPX - https://www.visugpx.com">
  <metadata>
    <name>14090888-PAT LETRA g3</name>
  </metadata>
  <trk>
    <name><![CDATA[14090888-PAT LETRA g3]]></name>
    <trkseg>
      <trkpt lat="45.95873" lon="4.51936">
        <ele>287</ele>
        <time>2022-01-05T07:54:29Z</time>
      </trkpt>
      <trkpt lat="45.95878" lon="4.51925">
        <ele>287</ele>
        <time>2022-01-05T07:54:41Z</time>
      </trkpt>
      <trkpt lat="45.95915" lon="4.51872">
        <ele>288</ele>
        <time>2022-01-05T07:55:51Z</time>
      </trkpt>
      <trkpt lat="45.95972" lon="4.51802">
        <ele>291</ele>
        <time>2022-01-05T07:57:31Z</time>
      </trkpt>
      <trkpt lat="45.96036" lon="4.5174">
        <ele>291</ele>
        <time>2022-01-05T07:59:14Z</time>
      </trkpt>
      <trkpt lat="45.96112" lon="4.51679">
        <ele>292</ele>
        <time>2022-01-05T08:01:10Z</time>
      </trkpt>
      <trkpt lat="45.96121" lon="4.51666">
        <ele>291</ele>
        <time>2022-01-05T08:01:27Z</time>
      </trkpt>
      <trkpt lat="45.96123" lon="4.51683">
        <ele>293</ele>
        <time>2022-01-05T08:01:43Z</time>
      </trkpt>
      <trkpt lat="45.9612" lon="4.51714">
        <ele>296</ele>
        <time>2022-01-05T08:02:12Z</time>
      </trkpt>
      <trkpt lat="45.96099" lon="4.5177">
        <ele>299</ele>
        <time>2022-01-05T08:03:11Z</time>
      </trkpt>
      <trkpt lat="45.9606" lon="4.51838">
        <ele>302</ele>
        <time>2022-01-05T08:04:33Z</time>
      </trkpt>
      <trkpt lat="45.96044" lon="4.51958">
        <ele>311</ele>
        <time>2022-01-05T08:06:26Z</time>
      </trkpt>
      <trkpt lat="45.96044" lon="4.51986">
        <ele>313</ele>
        <time>2022-01-05T08:06:52Z</time>
      </trkpt>
      <trkpt lat="45.96051" lon="4.52016">
        <ele>316</ele>
        <time>2022-01-05T08:07:22Z</time>
      </trkpt>
      <trkpt lat="45.96042" lon="4.5203">
        <ele>314</ele>
        <time>2022-01-05T08:07:39Z</time>
      </trkpt>
      <trkpt lat="45.96035" lon="4.52057">
        <ele>313</ele>
        <time>2022-01-05T08:08:06Z</time>
      </trkpt>
      <trkpt lat="45.96029" lon="4.52093">
        <ele>312</ele>
        <time>2022-01-05T08:08:40Z</time>
      </trkpt>
      <trkpt lat="45.96028" lon="4.52133">
        <ele>311</ele>
        <time>2022-01-05T08:09:17Z</time>
      </trkpt>
      <trkpt lat="45.96036" lon="4.52194">
        <ele>311</ele>
        <time>2022-01-05T08:10:15Z</time>
      </trkpt>
      <trkpt lat="45.96048" lon="4.52313">
        <ele>314</ele>
        <time>2022-01-05T08:12:07Z</time>
      </trkpt>
      <trkpt lat="45.9607" lon="4.52498">
        <ele>325</ele>
        <time>2022-01-05T08:15:01Z</time>
      </trkpt>
      <trkpt lat="45.96212" lon="4.52458">
        <ele>345</ele>
        <time>2022-01-05T08:18:14Z</time>
      </trkpt>
      <trkpt lat="45.96231" lon="4.52462">
        <ele>347</ele>
        <time>2022-01-05T08:18:39Z</time>
      </trkpt>
      <trkpt lat="45.96268" lon="4.52461">
        <ele>353</ele>
        <time>2022-01-05T08:19:29Z</time>
      </trkpt>
      <trkpt lat="45.96269" lon="4.52449">
        <ele>354</ele>
        <time>2022-01-05T08:19:40Z</time>
      </trkpt>
      <trkpt lat="45.96304" lon="4.52446">
        <ele>360</ele>
        <time>2022-01-05T08:20:27Z</time>
      </trkpt>
      <trkpt lat="45.96322" lon="4.52451">
        <ele>363</ele>
        <time>2022-01-05T08:20:51Z</time>
      </trkpt>
      <trkpt lat="45.96327" lon="4.52432">
        <ele>365</ele>
        <time>2022-01-05T08:21:10Z</time>
      </trkpt>
      <trkpt lat="45.96336" lon="4.52416">
        <ele>367</ele>
        <time>2022-01-05T08:21:29Z</time>
      </trkpt>
      <trkpt lat="45.96346" lon="4.52406">
        <ele>369</ele>
        <time>2022-01-05T08:21:45Z</time>
      </trkpt>
      <trkpt lat="45.96355" lon="4.52401">
        <ele>372</ele>
        <time>2022-01-05T08:21:58Z</time>
      </trkpt>
      <trkpt lat="45.96352" lon="4.52345">
        <ele>376</ele>
        <time>2022-01-05T08:22:50Z</time>
      </trkpt>
      <trkpt lat="45.96344" lon="4.52319">
        <ele>377</ele>
        <time>2022-01-05T08:23:17Z</time>
      </trkpt>
      <trkpt lat="45.96316" lon="4.52212">
        <ele>381</ele>
        <time>2022-01-05T08:25:03Z</time>
      </trkpt>
      <trkpt lat="45.96322" lon="4.52156">
        <ele>385</ele>
        <time>2022-01-05T08:25:55Z</time>
      </trkpt>
      <trkpt lat="45.9633" lon="4.52121">
        <ele>384</ele>
        <time>2022-01-05T08:26:30Z</time>
      </trkpt>
      <trkpt lat="45.96346" lon="4.52097">
        <ele>384</ele>
        <time>2022-01-05T08:27:00Z</time>
      </trkpt>
      <trkpt lat="45.96366" lon="4.52089">
        <ele>384</ele>
        <time>2022-01-05T08:27:28Z</time>
      </trkpt>
      <trkpt lat="45.96391" lon="4.52142">
        <ele>392</ele>
        <time>2022-01-05T08:28:28Z</time>
      </trkpt>
      <trkpt lat="45.96452" lon="4.52245">
        <ele>400</ele>
        <time>2022-01-05T08:30:33Z</time>
      </trkpt>
      <trkpt lat="45.96506" lon="4.52322">
        <ele>405</ele>
        <time>2022-01-05T08:32:14Z</time>
      </trkpt>
      <trkpt lat="45.96555" lon="4.524">
        <ele>410</ele>
        <time>2022-01-05T08:33:52Z</time>
      </trkpt>
      <trkpt lat="45.96563" lon="4.52409">
        <ele>412</ele>
        <time>2022-01-05T08:34:06Z</time>
      </trkpt>
      <trkpt lat="45.96582" lon="4.52423">
        <ele>415</ele>
        <time>2022-01-05T08:34:34Z</time>
      </trkpt>
      <trkpt lat="45.96631" lon="4.52475">
        <ele>418</ele>
        <time>2022-01-05T08:35:55Z</time>
      </trkpt>
      <trkpt lat="45.96686" lon="4.52552">
        <ele>420</ele>
        <time>2022-01-05T08:37:38Z</time>
      </trkpt>
      <trkpt lat="45.96735" lon="4.52632">
        <ele>422</ele>
        <time>2022-01-05T08:39:17Z</time>
      </trkpt>
      <trkpt lat="45.96759" lon="4.52657">
        <ele>424</ele>
        <time>2022-01-05T08:39:56Z</time>
      </trkpt>
      <trkpt lat="45.96782" lon="4.5267">
        <ele>423</ele>
        <time>2022-01-05T08:40:29Z</time>
      </trkpt>
      <trkpt lat="45.96792" lon="4.52679">
        <ele>423</ele>
        <time>2022-01-05T08:40:45Z</time>
      </trkpt>
      <trkpt lat="45.96823" lon="4.52722">
        <ele>425</ele>
        <time>2022-01-05T08:41:42Z</time>
      </trkpt>
      <trkpt lat="45.96853" lon="4.52798">
        <ele>426</ele>
        <time>2022-01-05T08:43:03Z</time>
      </trkpt>
      <trkpt lat="45.96854" lon="4.52813">
        <ele>427</ele>
        <time>2022-01-05T08:43:17Z</time>
      </trkpt>
      <trkpt lat="45.96903" lon="4.52833">
        <ele>428</ele>
        <time>2022-01-05T08:44:25Z</time>
      </trkpt>
      <trkpt lat="45.96907" lon="4.52874">
        <ele>431</ele>
        <time>2022-01-05T08:45:04Z</time>
      </trkpt>
      <trkpt lat="45.96918" lon="4.52941">
        <ele>437</ele>
        <time>2022-01-05T08:46:08Z</time>
      </trkpt>
      <trkpt lat="45.96889" lon="4.52975">
        <ele>433</ele>
        <time>2022-01-05T08:46:58Z</time>
      </trkpt>
      <trkpt lat="45.96868" lon="4.5301">
        <ele>431</ele>
        <time>2022-01-05T08:47:40Z</time>
      </trkpt>
      <trkpt lat="45.96834" lon="4.53094">
        <ele>434</ele>
        <time>2022-01-05T08:49:11Z</time>
      </trkpt>
      <trkpt lat="45.96813" lon="4.53152">
        <ele>432</ele>
        <time>2022-01-05T08:50:11Z</time>
      </trkpt>
      <trkpt lat="45.96804" lon="4.53182">
        <ele>429</ele>
        <time>2022-01-05T08:50:42Z</time>
      </trkpt>
      <trkpt lat="45.96804" lon="4.532">
        <ele>427</ele>
        <time>2022-01-05T08:50:58Z</time>
      </trkpt>
      <trkpt lat="45.96809" lon="4.53223">
        <ele>426</ele>
        <time>2022-01-05T08:51:21Z</time>
      </trkpt>
      <trkpt lat="45.96822" lon="4.53247">
        <ele>428</ele>
        <time>2022-01-05T08:51:49Z</time>
      </trkpt>
      <trkpt lat="45.96834" lon="4.53263">
        <ele>429</ele>
        <time>2022-01-05T08:52:11Z</time>
      </trkpt>
      <trkpt lat="45.96846" lon="4.53286">
        <ele>427</ele>
        <time>2022-01-05T08:52:37Z</time>
      </trkpt>
      <trkpt lat="45.96861" lon="4.53332">
        <ele>422</ele>
        <time>2022-01-05T08:53:24Z</time>
      </trkpt>
      <trkpt lat="45.96868" lon="4.53338">
        <ele>422</ele>
        <time>2022-01-05T08:53:35Z</time>
      </trkpt>
      <trkpt lat="45.96894" lon="4.5334">
        <ele>427</ele>
        <time>2022-01-05T08:54:10Z</time>
      </trkpt>
      <trkpt lat="45.96914" lon="4.53344">
        <ele>431</ele>
        <time>2022-01-05T08:54:37Z</time>
      </trkpt>
      <trkpt lat="45.96925" lon="4.53359">
        <ele>430</ele>
        <time>2022-01-05T08:54:57Z</time>
      </trkpt>
      <trkpt lat="45.9693" lon="4.53377">
        <ele>428</ele>
        <time>2022-01-05T08:55:15Z</time>
      </trkpt>
      <trkpt lat="45.96933" lon="4.53401">
        <ele>425</ele>
        <time>2022-01-05T08:55:38Z</time>
      </trkpt>
      <trkpt lat="45.96929" lon="4.53425">
        <ele>421</ele>
        <time>2022-01-05T08:56:01Z</time>
      </trkpt>
      <trkpt lat="45.96909" lon="4.53467">
        <ele>417</ele>
        <time>2022-01-05T08:56:48Z</time>
      </trkpt>
      <trkpt lat="45.96903" lon="4.53504">
        <ele>416</ele>
        <time>2022-01-05T08:57:23Z</time>
      </trkpt>
      <trkpt lat="45.969" lon="4.53539">
        <ele>413</ele>
        <time>2022-01-05T08:57:56Z</time>
      </trkpt>
      <trkpt lat="45.96918" lon="4.53597">
        <ele>413</ele>
        <time>2022-01-05T08:58:55Z</time>
      </trkpt>
      <trkpt lat="45.96921" lon="4.53612">
        <ele>411</ele>
        <time>2022-01-05T08:59:09Z</time>
      </trkpt>
      <trkpt lat="45.9693" lon="4.53643">
        <ele>407</ele>
        <time>2022-01-05T08:59:40Z</time>
      </trkpt>
      <trkpt lat="45.96948" lon="4.53679">
        <ele>403</ele>
        <time>2022-01-05T09:00:22Z</time>
      </trkpt>
      <trkpt lat="45.96966" lon="4.53696">
        <ele>404</ele>
        <time>2022-01-05T09:00:50Z</time>
      </trkpt>
      <trkpt lat="45.96966" lon="4.53696">
        <ele>404</ele>
        <time>2022-01-05T09:00:50Z</time>
      </trkpt>
      <trkpt lat="45.96986" lon="4.5372">
        <ele>403</ele>
        <time>2022-01-05T09:01:25Z</time>
      </trkpt>
      <trkpt lat="45.96992" lon="4.53731">
        <ele>402</ele>
        <time>2022-01-05T09:01:38Z</time>
      </trkpt>
      <trkpt lat="45.96996" lon="4.53743">
        <ele>401</ele>
        <time>2022-01-05T09:01:50Z</time>
      </trkpt>
      <trkpt lat="45.96997" lon="4.53754">
        <ele>401</ele>
        <time>2022-01-05T09:02:01Z</time>
      </trkpt>
      <trkpt lat="45.96993" lon="4.53765">
        <ele>401</ele>
        <time>2022-01-05T09:02:12Z</time>
      </trkpt>
      <trkpt lat="45.96986" lon="4.53779">
        <ele>402</ele>
        <time>2022-01-05T09:02:28Z</time>
      </trkpt>
      <trkpt lat="45.96987" lon="4.53786">
        <ele>402</ele>
        <time>2022-01-05T09:02:35Z</time>
      </trkpt>
      <trkpt lat="45.97005" lon="4.53794">
        <ele>405</ele>
        <time>2022-01-05T09:03:00Z</time>
      </trkpt>
      <trkpt lat="45.97015" lon="4.53833">
        <ele>410</ele>
        <time>2022-01-05T09:03:39Z</time>
      </trkpt>
      <trkpt lat="45.97033" lon="4.53888">
        <ele>413</ele>
        <time>2022-01-05T09:04:35Z</time>
      </trkpt>
      <trkpt lat="45.97039" lon="4.53902">
        <ele>414</ele>
        <time>2022-01-05T09:04:50Z</time>
      </trkpt>
      <trkpt lat="45.97053" lon="4.53924">
        <ele>417</ele>
        <time>2022-01-05T09:05:18Z</time>
      </trkpt>
      <trkpt lat="45.97067" lon="4.5394">
        <ele>418</ele>
        <time>2022-01-05T09:05:42Z</time>
      </trkpt>
      <trkpt lat="45.97122" lon="4.53997">
        <ele>419</ele>
        <time>2022-01-05T09:07:12Z</time>
      </trkpt>
      <trkpt lat="45.97134" lon="4.54002">
        <ele>421</ele>
        <time>2022-01-05T09:07:29Z</time>
      </trkpt>
      <trkpt lat="45.97169" lon="4.53997">
        <ele>426</ele>
        <time>2022-01-05T09:08:16Z</time>
      </trkpt>
      <trkpt lat="45.97188" lon="4.53991">
        <ele>428</ele>
        <time>2022-01-05T09:08:42Z</time>
      </trkpt>
      <trkpt lat="45.97225" lon="4.53995">
        <ele>432</ele>
        <time>2022-01-05T09:09:31Z</time>
      </trkpt>
      <trkpt lat="45.97244" lon="4.53991">
        <ele>435</ele>
        <time>2022-01-05T09:09:57Z</time>
      </trkpt>
      <trkpt lat="45.9725" lon="4.53987">
        <ele>436</ele>
        <time>2022-01-05T09:10:06Z</time>
      </trkpt>
      <trkpt lat="45.97278" lon="4.53977">
        <ele>440</ele>
        <time>2022-01-05T09:10:44Z</time>
      </trkpt>
      <trkpt lat="45.97316" lon="4.53976">
        <ele>443</ele>
        <time>2022-01-05T09:11:35Z</time>
      </trkpt>
      <trkpt lat="45.97332" lon="4.53964">
        <ele>447</ele>
        <time>2022-01-05T09:11:59Z</time>
      </trkpt>
      <trkpt lat="45.97358" lon="4.53954">
        <ele>451</ele>
        <time>2022-01-05T09:12:35Z</time>
      </trkpt>
      <trkpt lat="45.97365" lon="4.53949">
        <ele>452</ele>
        <time>2022-01-05T09:12:45Z</time>
      </trkpt>
      <trkpt lat="45.97375" lon="4.53961">
        <ele>451</ele>
        <time>2022-01-05T09:13:03Z</time>
      </trkpt>
      <trkpt lat="45.9737" lon="4.53995">
        <ele>447</ele>
        <time>2022-01-05T09:13:35Z</time>
      </trkpt>
      <trkpt lat="45.97354" lon="4.54055">
        <ele>448</ele>
        <time>2022-01-05T09:14:34Z</time>
      </trkpt>
      <trkpt lat="45.97347" lon="4.54102">
        <ele>452</ele>
        <time>2022-01-05T09:15:19Z</time>
      </trkpt>
      <trkpt lat="45.97309" lon="4.5421">
        <ele>458</ele>
        <time>2022-01-05T09:17:11Z</time>
      </trkpt>
      <trkpt lat="45.97307" lon="4.54227">
        <ele>461</ele>
        <time>2022-01-05T09:17:27Z</time>
      </trkpt>
      <trkpt lat="45.97308" lon="4.54231">
        <ele>462</ele>
        <time>2022-01-05T09:17:31Z</time>
      </trkpt>
      <trkpt lat="45.973" lon="4.54253">
        <ele>464</ele>
        <time>2022-01-05T09:17:54Z</time>
      </trkpt>
      <trkpt lat="45.97274" lon="4.54289">
        <ele>466</ele>
        <time>2022-01-05T09:18:42Z</time>
      </trkpt>
      <trkpt lat="45.9725" lon="4.54302">
        <ele>464</ele>
        <time>2022-01-05T09:19:17Z</time>
      </trkpt>
      <trkpt lat="45.97222" lon="4.54309">
        <ele>462</ele>
        <time>2022-01-05T09:19:55Z</time>
      </trkpt>
      <trkpt lat="45.97198" lon="4.54322">
        <ele>461</ele>
        <time>2022-01-05T09:20:29Z</time>
      </trkpt>
      <trkpt lat="45.97186" lon="4.54336">
        <ele>462</ele>
        <time>2022-01-05T09:20:49Z</time>
      </trkpt>
      <trkpt lat="45.97154" lon="4.54391">
        <ele>463</ele>
        <time>2022-01-05T09:21:56Z</time>
      </trkpt>
      <trkpt lat="45.97153" lon="4.54417">
        <ele>466</ele>
        <time>2022-01-05T09:22:20Z</time>
      </trkpt>
      <trkpt lat="45.97172" lon="4.54451">
        <ele>470</ele>
        <time>2022-01-05T09:23:01Z</time>
      </trkpt>
      <trkpt lat="45.97176" lon="4.54539">
        <ele>474</ele>
        <time>2022-01-05T09:24:22Z</time>
      </trkpt>
      <trkpt lat="45.97187" lon="4.54602">
        <ele>473</ele>
        <time>2022-01-05T09:25:23Z</time>
      </trkpt>
      <trkpt lat="45.97229" lon="4.5468">
        <ele>474</ele>
        <time>2022-01-05T09:26:54Z</time>
      </trkpt>
      <trkpt lat="45.97245" lon="4.54703">
        <ele>476</ele>
        <time>2022-01-05T09:27:24Z</time>
      </trkpt>
      <trkpt lat="45.97247" lon="4.54708">
        <ele>476</ele>
        <time>2022-01-05T09:27:30Z</time>
      </trkpt>
      <trkpt lat="45.97256" lon="4.54725">
        <ele>477</ele>
        <time>2022-01-05T09:27:49Z</time>
      </trkpt>
      <trkpt lat="45.97258" lon="4.54746">
        <ele>476</ele>
        <time>2022-01-05T09:28:09Z</time>
      </trkpt>
      <trkpt lat="45.97253" lon="4.54776">
        <ele>471</ele>
        <time>2022-01-05T09:28:38Z</time>
      </trkpt>
      <trkpt lat="45.97252" lon="4.54817">
        <ele>468</ele>
        <time>2022-01-05T09:29:16Z</time>
      </trkpt>
      <trkpt lat="45.97259" lon="4.54857">
        <ele>464</ele>
        <time>2022-01-05T09:29:54Z</time>
      </trkpt>
      <trkpt lat="45.97265" lon="4.54867">
        <ele>464</ele>
        <time>2022-01-05T09:30:06Z</time>
      </trkpt>
      <trkpt lat="45.9729" lon="4.5488">
        <ele>470</ele>
        <time>2022-01-05T09:30:42Z</time>
      </trkpt>
      <trkpt lat="45.97307" lon="4.54896">
        <ele>472</ele>
        <time>2022-01-05T09:31:09Z</time>
      </trkpt>
      <trkpt lat="45.97325" lon="4.54916">
        <ele>473</ele>
        <time>2022-01-05T09:31:39Z</time>
      </trkpt>
      <trkpt lat="45.97343" lon="4.54929">
        <ele>477</ele>
        <time>2022-01-05T09:32:06Z</time>
      </trkpt>
      <trkpt lat="45.97359" lon="4.54956">
        <ele>477</ele>
        <time>2022-01-05T09:32:39Z</time>
      </trkpt>
      <trkpt lat="45.97377" lon="4.5496">
        <ele>482</ele>
        <time>2022-01-05T09:33:03Z</time>
      </trkpt>
      <trkpt lat="45.97394" lon="4.5496">
        <ele>488</ele>
        <time>2022-01-05T09:33:26Z</time>
      </trkpt>
      <trkpt lat="45.97409" lon="4.54972">
        <ele>489</ele>
        <time>2022-01-05T09:33:49Z</time>
      </trkpt>
      <trkpt lat="45.97422" lon="4.54987">
        <ele>489</ele>
        <time>2022-01-05T09:34:11Z</time>
      </trkpt>
      <trkpt lat="45.97434" lon="4.55004">
        <ele>488</ele>
        <time>2022-01-05T09:34:34Z</time>
      </trkpt>
      <trkpt lat="45.97444" lon="4.55024">
        <ele>485</ele>
        <time>2022-01-05T09:34:56Z</time>
      </trkpt>
      <trkpt lat="45.97455" lon="4.55043">
        <ele>484</ele>
        <time>2022-01-05T09:35:19Z</time>
      </trkpt>
      <trkpt lat="45.97467" lon="4.55058">
        <ele>483</ele>
        <time>2022-01-05T09:35:41Z</time>
      </trkpt>
      <trkpt lat="45.97492" lon="4.55101">
        <ele>479</ele>
        <time>2022-01-05T09:36:33Z</time>
      </trkpt>
      <trkpt lat="45.97499" lon="4.55107">
        <ele>480</ele>
        <time>2022-01-05T09:36:43Z</time>
      </trkpt>
      <trkpt lat="45.9754" lon="4.55163">
        <ele>478</ele>
        <time>2022-01-05T09:37:59Z</time>
      </trkpt>
      <trkpt lat="45.9755" lon="4.55173">
        <ele>478</ele>
        <time>2022-01-05T09:38:15Z</time>
      </trkpt>
      <trkpt lat="45.97569" lon="4.55185">
        <ele>480</ele>
        <time>2022-01-05T09:38:43Z</time>
      </trkpt>
      <trkpt lat="45.97581" lon="4.55194">
        <ele>481</ele>
        <time>2022-01-05T09:39:01Z</time>
      </trkpt>
      <trkpt lat="45.97589" lon="4.55204">
        <ele>479</ele>
        <time>2022-01-05T09:39:15Z</time>
      </trkpt>
      <trkpt lat="45.97622" lon="4.55226">
        <ele>476</ele>
        <time>2022-01-05T09:40:04Z</time>
      </trkpt>
      <trkpt lat="45.9763" lon="4.55227">
        <ele>476</ele>
        <time>2022-01-05T09:40:14Z</time>
      </trkpt>
      <trkpt lat="45.97636" lon="4.55226">
        <ele>477</ele>
        <time>2022-01-05T09:40:22Z</time>
      </trkpt>
      <trkpt lat="45.97645" lon="4.55231">
        <ele>477</ele>
        <time>2022-01-05T09:40:35Z</time>
      </trkpt>
      <trkpt lat="45.97655" lon="4.55234">
        <ele>477</ele>
        <time>2022-01-05T09:40:49Z</time>
      </trkpt>
      <trkpt lat="45.97688" lon="4.55228">
        <ele>479</ele>
        <time>2022-01-05T09:41:33Z</time>
      </trkpt>
      <trkpt lat="45.97692" lon="4.55223">
        <ele>481</ele>
        <time>2022-01-05T09:41:40Z</time>
      </trkpt>
      <trkpt lat="45.977" lon="4.55222">
        <ele>481</ele>
        <time>2022-01-05T09:41:51Z</time>
      </trkpt>
      <trkpt lat="45.97707" lon="4.55219">
        <ele>482</ele>
        <time>2022-01-05T09:42:01Z</time>
      </trkpt>
      <trkpt lat="45.97732" lon="4.55216">
        <ele>482</ele>
        <time>2022-01-05T09:42:34Z</time>
      </trkpt>
      <trkpt lat="45.97735" lon="4.55214">
        <ele>483</ele>
        <time>2022-01-05T09:42:39Z</time>
      </trkpt>
      <trkpt lat="45.9778" lon="4.55219">
        <ele>486</ele>
        <time>2022-01-05T09:43:39Z</time>
      </trkpt>
      <trkpt lat="45.97815" lon="4.55233">
        <ele>486</ele>
        <time>2022-01-05T09:44:27Z</time>
      </trkpt>
      <trkpt lat="45.97826" lon="4.5524">
        <ele>486</ele>
        <time>2022-01-05T09:44:43Z</time>
      </trkpt>
      <trkpt lat="45.97842" lon="4.55256">
        <ele>483</ele>
        <time>2022-01-05T09:45:09Z</time>
      </trkpt>
      <trkpt lat="45.97868" lon="4.55274">
        <ele>482</ele>
        <time>2022-01-05T09:45:48Z</time>
      </trkpt>
      <trkpt lat="45.97884" lon="4.55293">
        <ele>478</ele>
        <time>2022-01-05T09:46:16Z</time>
      </trkpt>
      <trkpt lat="45.9789" lon="4.55298">
        <ele>477</ele>
        <time>2022-01-05T09:46:25Z</time>
      </trkpt>
      <trkpt lat="45.979" lon="4.55304">
        <ele>477</ele>
        <time>2022-01-05T09:46:39Z</time>
      </trkpt>
      <trkpt lat="45.9791" lon="4.55305">
        <ele>478</ele>
        <time>2022-01-05T09:46:53Z</time>
      </trkpt>
      <trkpt lat="45.9796" lon="4.55286">
        <ele>479</ele>
        <time>2022-01-05T09:48:02Z</time>
      </trkpt>
      <trkpt lat="45.97985" lon="4.55265">
        <ele>482</ele>
        <time>2022-01-05T09:48:40Z</time>
      </trkpt>
      <trkpt lat="45.97995" lon="4.55247">
        <ele>484</ele>
        <time>2022-01-05T09:49:02Z</time>
      </trkpt>
      <trkpt lat="45.98003" lon="4.55225">
        <ele>487</ele>
        <time>2022-01-05T09:49:25Z</time>
      </trkpt>
      <trkpt lat="45.98007" lon="4.55202">
        <ele>490</ele>
        <time>2022-01-05T09:49:47Z</time>
      </trkpt>
      <trkpt lat="45.98005" lon="4.55174">
        <ele>494</ele>
        <time>2022-01-05T09:50:13Z</time>
      </trkpt>
      <trkpt lat="45.98008" lon="4.55165">
        <ele>496</ele>
        <time>2022-01-05T09:50:22Z</time>
      </trkpt>
      <trkpt lat="45.98012" lon="4.55158">
        <ele>497</ele>
        <time>2022-01-05T09:50:31Z</time>
      </trkpt>
      <trkpt lat="45.98016" lon="4.55161">
        <ele>497</ele>
        <time>2022-01-05T09:50:37Z</time>
      </trkpt>
      <trkpt lat="45.98018" lon="4.55166">
        <ele>497</ele>
        <time>2022-01-05T09:50:42Z</time>
      </trkpt>
      <trkpt lat="45.9803" lon="4.55195">
        <ele>492</ele>
        <time>2022-01-05T09:51:13Z</time>
      </trkpt>
      <trkpt lat="45.98038" lon="4.55203">
        <ele>491</ele>
        <time>2022-01-05T09:51:26Z</time>
      </trkpt>
      <trkpt lat="45.98043" lon="4.55206">
        <ele>490</ele>
        <time>2022-01-05T09:51:33Z</time>
      </trkpt>
      <trkpt lat="45.98053" lon="4.55217">
        <ele>488</ele>
        <time>2022-01-05T09:51:50Z</time>
      </trkpt>
      <trkpt lat="45.9806" lon="4.55233">
        <ele>484</ele>
        <time>2022-01-05T09:52:08Z</time>
      </trkpt>
      <trkpt lat="45.98069" lon="4.55247">
        <ele>480</ele>
        <time>2022-01-05T09:52:25Z</time>
      </trkpt>
      <trkpt lat="45.98083" lon="4.55277">
        <ele>473</ele>
        <time>2022-01-05T09:52:59Z</time>
      </trkpt>
      <trkpt lat="45.9809" lon="4.55306">
        <ele>466</ele>
        <time>2022-01-05T09:53:27Z</time>
      </trkpt>
      <trkpt lat="45.9809" lon="4.55318">
        <ele>463</ele>
        <time>2022-01-05T09:53:39Z</time>
      </trkpt>
      <trkpt lat="45.98092" lon="4.55326">
        <ele>461</ele>
        <time>2022-01-05T09:53:46Z</time>
      </trkpt>
      <trkpt lat="45.98106" lon="4.55328">
        <ele>461</ele>
        <time>2022-01-05T09:54:05Z</time>
      </trkpt>
      <trkpt lat="45.98125" lon="4.55321">
        <ele>463</ele>
        <time>2022-01-05T09:54:31Z</time>
      </trkpt>
      <trkpt lat="45.98156" lon="4.55301">
        <ele>468</ele>
        <time>2022-01-05T09:55:17Z</time>
      </trkpt>
      <trkpt lat="45.98179" lon="4.55289">
        <ele>471</ele>
        <time>2022-01-05T09:55:49Z</time>
      </trkpt>
      <trkpt lat="45.98207" lon="4.55262">
        <ele>473</ele>
        <time>2022-01-05T09:56:34Z</time>
      </trkpt>
      <trkpt lat="45.98215" lon="4.55249">
        <ele>472</ele>
        <time>2022-01-05T09:56:50Z</time>
      </trkpt>
      <trkpt lat="45.9824" lon="4.55235">
        <ele>471</ele>
        <time>2022-01-05T09:57:26Z</time>
      </trkpt>
      <trkpt lat="45.98253" lon="4.55221">
        <ele>473</ele>
        <time>2022-01-05T09:57:48Z</time>
      </trkpt>
      <trkpt lat="45.98254" lon="4.5522">
        <ele>473</ele>
        <time>2022-01-05T09:57:50Z</time>
      </trkpt>
      <trkpt lat="45.98258" lon="4.55229">
        <ele>471</ele>
        <time>2022-01-05T09:57:59Z</time>
      </trkpt>
      <trkpt lat="45.98264" lon="4.55228">
        <ele>471</ele>
        <time>2022-01-05T09:58:07Z</time>
      </trkpt>
      <trkpt lat="45.98272" lon="4.55219">
        <ele>472</ele>
        <time>2022-01-05T09:58:21Z</time>
      </trkpt>
      <trkpt lat="45.98264" lon="4.55228">
        <ele>471</ele>
        <time>2022-01-05T09:58:35Z</time>
      </trkpt>
      <trkpt lat="45.98257" lon="4.55244">
        <ele>467</ele>
        <time>2022-01-05T09:58:52Z</time>
      </trkpt>
      <trkpt lat="45.98243" lon="4.55258">
        <ele>467</ele>
        <time>2022-01-05T09:59:15Z</time>
      </trkpt>
      <trkpt lat="45.98214" lon="4.55276">
        <ele>470</ele>
        <time>2022-01-05T09:59:57Z</time>
      </trkpt>
      <trkpt lat="45.98187" lon="4.55306">
        <ele>468</ele>
        <time>2022-01-05T10:00:43Z</time>
      </trkpt>
      <trkpt lat="45.98168" lon="4.5533">
        <ele>461</ele>
        <time>2022-01-05T10:01:16Z</time>
      </trkpt>
      <trkpt lat="45.98104" lon="4.55382">
        <ele>456</ele>
        <time>2022-01-05T10:02:54Z</time>
      </trkpt>
      <trkpt lat="45.98076" lon="4.55391">
        <ele>453</ele>
        <time>2022-01-05T10:03:33Z</time>
      </trkpt>
      <trkpt lat="45.98054" lon="4.55394">
        <ele>451</ele>
        <time>2022-01-05T10:04:02Z</time>
      </trkpt>
      <trkpt lat="45.98029" lon="4.55408">
        <ele>447</ele>
        <time>2022-01-05T10:04:38Z</time>
      </trkpt>
      <trkpt lat="45.9801" lon="4.55412">
        <ele>445</ele>
        <time>2022-01-05T10:05:04Z</time>
      </trkpt>
      <trkpt lat="45.97995" lon="4.55418">
        <ele>443</ele>
        <time>2022-01-05T10:05:24Z</time>
      </trkpt>
      <trkpt lat="45.97984" lon="4.5542">
        <ele>444</ele>
        <time>2022-01-05T10:05:39Z</time>
      </trkpt>
      <trkpt lat="45.97975" lon="4.55431">
        <ele>446</ele>
        <time>2022-01-05T10:05:55Z</time>
      </trkpt>
      <trkpt lat="45.97959" lon="4.55427">
        <ele>445</ele>
        <time>2022-01-05T10:06:17Z</time>
      </trkpt>
      <trkpt lat="45.97953" lon="4.55429">
        <ele>445</ele>
        <time>2022-01-05T10:06:25Z</time>
      </trkpt>
      <trkpt lat="45.97948" lon="4.55434">
        <ele>446</ele>
        <time>2022-01-05T10:06:33Z</time>
      </trkpt>
      <trkpt lat="45.97948" lon="4.55437">
        <ele>446</ele>
        <time>2022-01-05T10:06:36Z</time>
      </trkpt>
      <trkpt lat="45.97927" lon="4.55447">
        <ele>447</ele>
        <time>2022-01-05T10:07:05Z</time>
      </trkpt>
      <trkpt lat="45.97893" lon="4.55455">
        <ele>446</ele>
        <time>2022-01-05T10:07:51Z</time>
      </trkpt>
      <trkpt lat="45.97848" lon="4.55451">
        <ele>443</ele>
        <time>2022-01-05T10:08:51Z</time>
      </trkpt>
      <trkpt lat="45.97843" lon="4.55445">
        <ele>442</ele>
        <time>2022-01-05T10:09:00Z</time>
      </trkpt>
      <trkpt lat="45.9782" lon="4.5543">
        <ele>439</ele>
        <time>2022-01-05T10:09:34Z</time>
      </trkpt>
      <trkpt lat="45.97815" lon="4.55419">
        <ele>437</ele>
        <time>2022-01-05T10:09:46Z</time>
      </trkpt>
      <trkpt lat="45.97777" lon="4.55382">
        <ele>436</ele>
        <time>2022-01-05T10:10:47Z</time>
      </trkpt>
      <trkpt lat="45.97754" lon="4.5537">
        <ele>432</ele>
        <time>2022-01-05T10:11:20Z</time>
      </trkpt>
      <trkpt lat="45.97739" lon="4.55367">
        <ele>432</ele>
        <time>2022-01-05T10:11:40Z</time>
      </trkpt>
      <trkpt lat="45.97726" lon="4.55358">
        <ele>432</ele>
        <time>2022-01-05T10:11:59Z</time>
      </trkpt>
      <trkpt lat="45.97708" lon="4.55361">
        <ele>431</ele>
        <time>2022-01-05T10:12:23Z</time>
      </trkpt>
      <trkpt lat="45.97681" lon="4.5537">
        <ele>431</ele>
        <time>2022-01-05T10:13:00Z</time>
      </trkpt>
      <trkpt lat="45.97658" lon="4.55382">
        <ele>430</ele>
        <time>2022-01-05T10:13:33Z</time>
      </trkpt>
      <trkpt lat="45.97648" lon="4.55396">
        <ele>429</ele>
        <time>2022-01-05T10:13:52Z</time>
      </trkpt>
      <trkpt lat="45.9762" lon="4.55406">
        <ele>426</ele>
        <time>2022-01-05T10:14:30Z</time>
      </trkpt>
      <trkpt lat="45.97612" lon="4.55413">
        <ele>424</ele>
        <time>2022-01-05T10:14:43Z</time>
      </trkpt>
      <trkpt lat="45.97588" lon="4.5542">
        <ele>421</ele>
        <time>2022-01-05T10:15:15Z</time>
      </trkpt>
      <trkpt lat="45.97572" lon="4.5542">
        <ele>420</ele>
        <time>2022-01-05T10:15:37Z</time>
      </trkpt>
      <trkpt lat="45.97566" lon="4.55424">
        <ele>420</ele>
        <time>2022-01-05T10:15:46Z</time>
      </trkpt>
      <trkpt lat="45.97569" lon="4.5543">
        <ele>421</ele>
        <time>2022-01-05T10:15:52Z</time>
      </trkpt>
      <trkpt lat="45.97564" lon="4.55444">
        <ele>423</ele>
        <time>2022-01-05T10:16:07Z</time>
      </trkpt>
      <trkpt lat="45.97531" lon="4.55461">
        <ele>425</ele>
        <time>2022-01-05T10:16:54Z</time>
      </trkpt>
      <trkpt lat="45.97511" lon="4.55446">
        <ele>422</ele>
        <time>2022-01-05T10:17:24Z</time>
      </trkpt>
      <trkpt lat="45.97497" lon="4.55423">
        <ele>417</ele>
        <time>2022-01-05T10:17:52Z</time>
      </trkpt>
      <trkpt lat="45.97496" lon="4.55414">
        <ele>416</ele>
        <time>2022-01-05T10:18:01Z</time>
      </trkpt>
      <trkpt lat="45.97482" lon="4.55392">
        <ele>417</ele>
        <time>2022-01-05T10:18:28Z</time>
      </trkpt>
      <trkpt lat="45.97475" lon="4.55382">
        <ele>417</ele>
        <time>2022-01-05T10:18:41Z</time>
      </trkpt>
      <trkpt lat="45.97437" lon="4.55355">
        <ele>411</ele>
        <time>2022-01-05T10:19:38Z</time>
      </trkpt>
      <trkpt lat="45.9743" lon="4.55341">
        <ele>408</ele>
        <time>2022-01-05T10:19:54Z</time>
      </trkpt>
      <trkpt lat="45.97431" lon="4.55337">
        <ele>408</ele>
        <time>2022-01-05T10:19:58Z</time>
      </trkpt>
      <trkpt lat="45.97413" lon="4.55296">
        <ele>409</ele>
        <time>2022-01-05T10:20:43Z</time>
      </trkpt>
      <trkpt lat="45.97401" lon="4.55285">
        <ele>410</ele>
        <time>2022-01-05T10:21:02Z</time>
      </trkpt>
      <trkpt lat="45.97389" lon="4.5527">
        <ele>411</ele>
        <time>2022-01-05T10:21:23Z</time>
      </trkpt>
      <trkpt lat="45.97362" lon="4.55251">
        <ele>408</ele>
        <time>2022-01-05T10:22:03Z</time>
      </trkpt>
      <trkpt lat="45.97334" lon="4.55227">
        <ele>405</ele>
        <time>2022-01-05T10:22:47Z</time>
      </trkpt>
      <trkpt lat="45.97286" lon="4.55153">
        <ele>405</ele>
        <time>2022-01-05T10:24:21Z</time>
      </trkpt>
      <trkpt lat="45.9727" lon="4.55121">
        <ele>405</ele>
        <time>2022-01-05T10:24:57Z</time>
      </trkpt>
      <trkpt lat="45.97248" lon="4.55097">
        <ele>399</ele>
        <time>2022-01-05T10:25:34Z</time>
      </trkpt>
      <trkpt lat="45.97235" lon="4.55086">
        <ele>398</ele>
        <time>2022-01-05T10:25:54Z</time>
      </trkpt>
      <trkpt lat="45.97195" lon="4.55067">
        <ele>394</ele>
        <time>2022-01-05T10:26:50Z</time>
      </trkpt>
      <trkpt lat="45.97175" lon="4.55052">
        <ele>392</ele>
        <time>2022-01-05T10:27:20Z</time>
      </trkpt>
      <trkpt lat="45.97152" lon="4.55033">
        <ele>391</ele>
        <time>2022-01-05T10:27:56Z</time>
      </trkpt>
      <trkpt lat="45.97146" lon="4.55034">
        <ele>391</ele>
        <time>2022-01-05T10:28:04Z</time>
      </trkpt>
      <trkpt lat="45.97131" lon="4.55031">
        <ele>390</ele>
        <time>2022-01-05T10:28:24Z</time>
      </trkpt>
      <trkpt lat="45.97116" lon="4.5502">
        <ele>388</ele>
        <time>2022-01-05T10:28:47Z</time>
      </trkpt>
      <trkpt lat="45.971" lon="4.55016">
        <ele>386</ele>
        <time>2022-01-05T10:29:08Z</time>
      </trkpt>
      <trkpt lat="45.97087" lon="4.55017">
        <ele>385</ele>
        <time>2022-01-05T10:29:26Z</time>
      </trkpt>
      <trkpt lat="45.97063" lon="4.55025">
        <ele>384</ele>
        <time>2022-01-05T10:29:59Z</time>
      </trkpt>
      <trkpt lat="45.96978" lon="4.5503">
        <ele>381</ele>
        <time>2022-01-05T10:31:52Z</time>
      </trkpt>
      <trkpt lat="45.96955" lon="4.55035">
        <ele>382</ele>
        <time>2022-01-05T10:32:23Z</time>
      </trkpt>
      <trkpt lat="45.96939" lon="4.55042">
        <ele>383</ele>
        <time>2022-01-05T10:32:45Z</time>
      </trkpt>
      <trkpt lat="45.96927" lon="4.55042">
        <ele>383</ele>
        <time>2022-01-05T10:33:01Z</time>
      </trkpt>
      <trkpt lat="45.96925" lon="4.5504">
        <ele>383</ele>
        <time>2022-01-05T10:33:05Z</time>
      </trkpt>
      <trkpt lat="45.9693" lon="4.55015">
        <ele>379</ele>
        <time>2022-01-05T10:33:29Z</time>
      </trkpt>
      <trkpt lat="45.96928" lon="4.54996">
        <ele>376</ele>
        <time>2022-01-05T10:33:47Z</time>
      </trkpt>
      <trkpt lat="45.96926" lon="4.54987">
        <ele>376</ele>
        <time>2022-01-05T10:33:55Z</time>
      </trkpt>
      <trkpt lat="45.96916" lon="4.54973">
        <ele>375</ele>
        <time>2022-01-05T10:34:14Z</time>
      </trkpt>
      <trkpt lat="45.96878" lon="4.5496">
        <ele>378</ele>
        <time>2022-01-05T10:35:06Z</time>
      </trkpt>
      <trkpt lat="45.9685" lon="4.54941">
        <ele>377</ele>
        <time>2022-01-05T10:35:47Z</time>
      </trkpt>
      <trkpt lat="45.96838" lon="4.54927">
        <ele>374</ele>
        <time>2022-01-05T10:36:08Z</time>
      </trkpt>
      <trkpt lat="45.96827" lon="4.54919">
        <ele>374</ele>
        <time>2022-01-05T10:36:24Z</time>
      </trkpt>
      <trkpt lat="45.96798" lon="4.5489">
        <ele>375</ele>
        <time>2022-01-05T10:37:12Z</time>
      </trkpt>
      <trkpt lat="45.96778" lon="4.54859">
        <ele>371</ele>
        <time>2022-01-05T10:37:51Z</time>
      </trkpt>
      <trkpt lat="45.96744" lon="4.54849">
        <ele>368</ele>
        <time>2022-01-05T10:38:37Z</time>
      </trkpt>
      <trkpt lat="45.96724" lon="4.54849">
        <ele>368</ele>
        <time>2022-01-05T10:39:04Z</time>
      </trkpt>
      <trkpt lat="45.96682" lon="4.54844">
        <ele>367</ele>
        <time>2022-01-05T10:40:00Z</time>
      </trkpt>
      <trkpt lat="45.96647" lon="4.54852">
        <ele>371</ele>
        <time>2022-01-05T10:40:47Z</time>
      </trkpt>
      <trkpt lat="45.96623" lon="4.54853">
        <ele>371</ele>
        <time>2022-01-05T10:41:19Z</time>
      </trkpt>
      <trkpt lat="45.96613" lon="4.54846">
        <ele>369</ele>
        <time>2022-01-05T10:41:34Z</time>
      </trkpt>
      <trkpt lat="45.96557" lon="4.54772">
        <ele>360</ele>
        <time>2022-01-05T10:43:16Z</time>
      </trkpt>
      <trkpt lat="45.96537" lon="4.54757">
        <ele>359</ele>
        <time>2022-01-05T10:43:46Z</time>
      </trkpt>
      <trkpt lat="45.96514" lon="4.54746">
        <ele>359</ele>
        <time>2022-01-05T10:44:18Z</time>
      </trkpt>
      <trkpt lat="45.96461" lon="4.54728">
        <ele>366</ele>
        <time>2022-01-05T10:45:31Z</time>
      </trkpt>
      <trkpt lat="45.96433" lon="4.54694">
        <ele>362</ele>
        <time>2022-01-05T10:46:20Z</time>
      </trkpt>
      <trkpt lat="45.96289" lon="4.54633">
        <ele>359</ele>
        <time>2022-01-05T10:49:40Z</time>
      </trkpt>
      <trkpt lat="45.96262" lon="4.5461">
        <ele>353</ele>
        <time>2022-01-05T10:50:22Z</time>
      </trkpt>
      <trkpt lat="45.96252" lon="4.54525">
        <ele>348</ele>
        <time>2022-01-05T10:51:42Z</time>
      </trkpt>
      <trkpt lat="45.96242" lon="4.54508">
        <ele>348</ele>
        <time>2022-01-05T10:52:03Z</time>
      </trkpt>
      <trkpt lat="45.96229" lon="4.54497">
        <ele>348</ele>
        <time>2022-01-05T10:52:23Z</time>
      </trkpt>
      <trkpt lat="45.96213" lon="4.54491">
        <ele>347</ele>
        <time>2022-01-05T10:52:45Z</time>
      </trkpt>
      <trkpt lat="45.96192" lon="4.54468">
        <ele>347</ele>
        <time>2022-01-05T10:53:20Z</time>
      </trkpt>
      <trkpt lat="45.96166" lon="4.54429">
        <ele>345</ele>
        <time>2022-01-05T10:54:10Z</time>
      </trkpt>
      <trkpt lat="45.96157" lon="4.54406">
        <ele>346</ele>
        <time>2022-01-05T10:54:35Z</time>
      </trkpt>
      <trkpt lat="45.96076" lon="4.54314">
        <ele>340</ele>
        <time>2022-01-05T10:56:52Z</time>
      </trkpt>
      <trkpt lat="45.96061" lon="4.54245">
        <ele>344</ele>
        <time>2022-01-05T10:57:59Z</time>
      </trkpt>
      <trkpt lat="45.96047" lon="4.54219">
        <ele>342</ele>
        <time>2022-01-05T10:58:30Z</time>
      </trkpt>
      <trkpt lat="45.96021" lon="4.54185">
        <ele>339</ele>
        <time>2022-01-05T10:59:17Z</time>
      </trkpt>
      <trkpt lat="45.96006" lon="4.54172">
        <ele>337</ele>
        <time>2022-01-05T10:59:40Z</time>
      </trkpt>
      <trkpt lat="45.95972" lon="4.54128">
        <ele>336</ele>
        <time>2022-01-05T11:00:41Z</time>
      </trkpt>
      <trkpt lat="45.95968" lon="4.54111">
        <ele>337</ele>
        <time>2022-01-05T11:00:58Z</time>
      </trkpt>
      <trkpt lat="45.95971" lon="4.54098">
        <ele>339</ele>
        <time>2022-01-05T11:01:11Z</time>
      </trkpt>
      <trkpt lat="45.95969" lon="4.5409">
        <ele>340</ele>
        <time>2022-01-05T11:01:18Z</time>
      </trkpt>
      <trkpt lat="45.95965" lon="4.54088">
        <ele>340</ele>
        <time>2022-01-05T11:01:24Z</time>
      </trkpt>
      <trkpt lat="45.95919" lon="4.54094">
        <ele>331</ele>
        <time>2022-01-05T11:02:26Z</time>
      </trkpt>
      <trkpt lat="45.95907" lon="4.54091">
        <ele>330</ele>
        <time>2022-01-05T11:02:42Z</time>
      </trkpt>
      <trkpt lat="45.95886" lon="4.54069">
        <ele>329</ele>
        <time>2022-01-05T11:03:17Z</time>
      </trkpt>
      <trkpt lat="45.95859" lon="4.54002">
        <ele>330</ele>
        <time>2022-01-05T11:04:28Z</time>
      </trkpt>
      <trkpt lat="45.95809" lon="4.53951">
        <ele>329</ele>
        <time>2022-01-05T11:05:50Z</time>
      </trkpt>
      <trkpt lat="45.95779" lon="4.53938">
        <ele>327</ele>
        <time>2022-01-05T11:06:32Z</time>
      </trkpt>
      <trkpt lat="45.95746" lon="4.53931">
        <ele>324</ele>
        <time>2022-01-05T11:07:17Z</time>
      </trkpt>
      <trkpt lat="45.95708" lon="4.53899">
        <ele>321</ele>
        <time>2022-01-05T11:08:15Z</time>
      </trkpt>
      <trkpt lat="45.95685" lon="4.53858">
        <ele>319</ele>
        <time>2022-01-05T11:09:04Z</time>
      </trkpt>
      <trkpt lat="45.95675" lon="4.53829">
        <ele>317</ele>
        <time>2022-01-05T11:09:34Z</time>
      </trkpt>
      <trkpt lat="45.95661" lon="4.53797">
        <ele>317</ele>
        <time>2022-01-05T11:10:09Z</time>
      </trkpt>
      <trkpt lat="45.95658" lon="4.53779">
        <ele>318</ele>
        <time>2022-01-05T11:10:27Z</time>
      </trkpt>
      <trkpt lat="45.9565" lon="4.53762">
        <ele>318</ele>
        <time>2022-01-05T11:10:46Z</time>
      </trkpt>
      <trkpt lat="45.95643" lon="4.53736">
        <ele>318</ele>
        <time>2022-01-05T11:11:11Z</time>
      </trkpt>
      <trkpt lat="45.9564" lon="4.53713">
        <ele>317</ele>
        <time>2022-01-05T11:11:33Z</time>
      </trkpt>
      <trkpt lat="45.95645" lon="4.53693">
        <ele>318</ele>
        <time>2022-01-05T11:11:53Z</time>
      </trkpt>
      <trkpt lat="45.95667" lon="4.53654">
        <ele>322</ele>
        <time>2022-01-05T11:12:39Z</time>
      </trkpt>
      <trkpt lat="45.95701" lon="4.53629">
        <ele>326</ele>
        <time>2022-01-05T11:13:30Z</time>
      </trkpt>
      <trkpt lat="45.95716" lon="4.536">
        <ele>327</ele>
        <time>2022-01-05T11:14:04Z</time>
      </trkpt>
      <trkpt lat="45.95723" lon="4.53572">
        <ele>329</ele>
        <time>2022-01-05T11:14:32Z</time>
      </trkpt>
      <trkpt lat="45.95737" lon="4.53459">
        <ele>340</ele>
        <time>2022-01-05T11:16:18Z</time>
      </trkpt>
      <trkpt lat="45.95741" lon="4.53387">
        <ele>345</ele>
        <time>2022-01-05T11:17:25Z</time>
      </trkpt>
      <trkpt lat="45.95748" lon="4.53382">
        <ele>345</ele>
        <time>2022-01-05T11:17:35Z</time>
      </trkpt>
      <trkpt lat="45.95768" lon="4.53357">
        <ele>347</ele>
        <time>2022-01-05T11:18:11Z</time>
      </trkpt>
      <trkpt lat="45.95784" lon="4.53324">
        <ele>348</ele>
        <time>2022-01-05T11:18:48Z</time>
      </trkpt>
      <trkpt lat="45.95797" lon="4.53278">
        <ele>347</ele>
        <time>2022-01-05T11:19:34Z</time>
      </trkpt>
      <trkpt lat="45.95818" lon="4.53197">
        <ele>346</ele>
        <time>2022-01-05T11:20:54Z</time>
      </trkpt>
      <trkpt lat="45.95838" lon="4.53147">
        <ele>347</ele>
        <time>2022-01-05T11:21:48Z</time>
      </trkpt>
      <trkpt lat="45.9585" lon="4.53115">
        <ele>348</ele>
        <time>2022-01-05T11:22:22Z</time>
      </trkpt>
      <trkpt lat="45.95865" lon="4.53081">
        <ele>348</ele>
        <time>2022-01-05T11:22:59Z</time>
      </trkpt>
      <trkpt lat="45.95866" lon="4.53074">
        <ele>348</ele>
        <time>2022-01-05T11:23:06Z</time>
      </trkpt>
      <trkpt lat="45.95872" lon="4.53069">
        <ele>348</ele>
        <time>2022-01-05T11:23:15Z</time>
      </trkpt>
      <trkpt lat="45.95886" lon="4.53045">
        <ele>348</ele>
        <time>2022-01-05T11:23:44Z</time>
      </trkpt>
      <trkpt lat="45.95898" lon="4.5301">
        <ele>347</ele>
        <time>2022-01-05T11:24:20Z</time>
      </trkpt>
      <trkpt lat="45.95914" lon="4.52948">
        <ele>345</ele>
        <time>2022-01-05T11:25:22Z</time>
      </trkpt>
      <trkpt lat="45.9592" lon="4.52929">
        <ele>344</ele>
        <time>2022-01-05T11:25:41Z</time>
      </trkpt>
      <trkpt lat="45.95925" lon="4.5292">
        <ele>343</ele>
        <time>2022-01-05T11:25:52Z</time>
      </trkpt>
      <trkpt lat="45.9595" lon="4.5289">
        <ele>339</ele>
        <time>2022-01-05T11:26:35Z</time>
      </trkpt>
      <trkpt lat="45.95964" lon="4.52857">
        <ele>335</ele>
        <time>2022-01-05T11:27:11Z</time>
      </trkpt>
      <trkpt lat="45.95979" lon="4.52831">
        <ele>331</ele>
        <time>2022-01-05T11:27:42Z</time>
      </trkpt>
      <trkpt lat="45.95982" lon="4.5282">
        <ele>330</ele>
        <time>2022-01-05T11:27:53Z</time>
      </trkpt>
      <trkpt lat="45.95976" lon="4.52794">
        <ele>327</ele>
        <time>2022-01-05T11:28:19Z</time>
      </trkpt>
      <trkpt lat="45.95977" lon="4.52779">
        <ele>326</ele>
        <time>2022-01-05T11:28:33Z</time>
      </trkpt>
      <trkpt lat="45.95984" lon="4.52786">
        <ele>326</ele>
        <time>2022-01-05T11:28:44Z</time>
      </trkpt>
      <trkpt lat="45.95977" lon="4.52779">
        <ele>326</ele>
        <time>2022-01-05T11:28:55Z</time>
      </trkpt>
      <trkpt lat="45.95983" lon="4.5277">
        <ele>324</ele>
        <time>2022-01-05T11:29:07Z</time>
      </trkpt>
      <trkpt lat="45.95999" lon="4.52762">
        <ele>322</ele>
        <time>2022-01-05T11:29:29Z</time>
      </trkpt>
      <trkpt lat="45.96011" lon="4.52762">
        <ele>322</ele>
        <time>2022-01-05T11:29:46Z</time>
      </trkpt>
      <trkpt lat="45.96024" lon="4.52759">
        <ele>321</ele>
        <time>2022-01-05T11:30:03Z</time>
      </trkpt>
      <trkpt lat="45.96029" lon="4.52747">
        <ele>320</ele>
        <time>2022-01-05T11:30:16Z</time>
      </trkpt>
      <trkpt lat="45.96028" lon="4.52731">
        <ele>320</ele>
        <time>2022-01-05T11:30:31Z</time>
      </trkpt>
      <trkpt lat="45.96023" lon="4.52717">
        <ele>319</ele>
        <time>2022-01-05T11:30:46Z</time>
      </trkpt>
      <trkpt lat="45.9601" lon="4.52689">
        <ele>317</ele>
        <time>2022-01-05T11:31:17Z</time>
      </trkpt>
      <trkpt lat="45.96005" lon="4.52665">
        <ele>316</ele>
        <time>2022-01-05T11:31:40Z</time>
      </trkpt>
      <trkpt lat="45.96003" lon="4.52648">
        <ele>315</ele>
        <time>2022-01-05T11:31:56Z</time>
      </trkpt>
      <trkpt lat="45.96008" lon="4.52632">
        <ele>316</ele>
        <time>2022-01-05T11:32:12Z</time>
      </trkpt>
      <trkpt lat="45.96032" lon="4.52665">
        <ele>319</ele>
        <time>2022-01-05T11:32:57Z</time>
      </trkpt>
      <trkpt lat="45.96042" lon="4.52642">
        <ele>321</ele>
        <time>2022-01-05T11:33:22Z</time>
      </trkpt>
      <trkpt lat="45.96078" lon="4.52619">
        <ele>326</ele>
        <time>2022-01-05T11:34:14Z</time>
      </trkpt>
      <trkpt lat="45.96088" lon="4.52621">
        <ele>327</ele>
        <time>2022-01-05T11:34:28Z</time>
      </trkpt>
      <trkpt lat="45.96099" lon="4.52617">
        <ele>329</ele>
        <time>2022-01-05T11:34:43Z</time>
      </trkpt>
      <trkpt lat="45.96108" lon="4.52592">
        <ele>330</ele>
        <time>2022-01-05T11:35:09Z</time>
      </trkpt>
      <trkpt lat="45.96109" lon="4.52538">
        <ele>331</ele>
        <time>2022-01-05T11:35:59Z</time>
      </trkpt>
      <trkpt lat="45.96102" lon="4.52517">
        <ele>330</ele>
        <time>2022-01-05T11:36:21Z</time>
      </trkpt>
      <trkpt lat="45.96099" lon="4.5249">
        <ele>329</ele>
        <time>2022-01-05T11:36:46Z</time>
      </trkpt>
      <trkpt lat="45.9607" lon="4.52498">
        <ele>325</ele>
        <time>2022-01-05T11:37:26Z</time>
      </trkpt>
      <trkpt lat="45.96048" lon="4.52313">
        <ele>314</ele>
        <time>2022-01-05T11:40:20Z</time>
      </trkpt>
      <trkpt lat="45.96036" lon="4.52194">
        <ele>311</ele>
        <time>2022-01-05T11:42:11Z</time>
      </trkpt>
      <trkpt lat="45.96028" lon="4.52133">
        <ele>311</ele>
        <time>2022-01-05T11:43:09Z</time>
      </trkpt>
      <trkpt lat="45.96029" lon="4.52093">
        <ele>312</ele>
        <time>2022-01-05T11:43:46Z</time>
      </trkpt>
      <trkpt lat="45.96035" lon="4.52057">
        <ele>313</ele>
        <time>2022-01-05T11:44:20Z</time>
      </trkpt>
      <trkpt lat="45.96042" lon="4.5203">
        <ele>314</ele>
        <time>2022-01-05T11:44:47Z</time>
      </trkpt>
      <trkpt lat="45.96051" lon="4.52016">
        <ele>316</ele>
        <time>2022-01-05T11:45:05Z</time>
      </trkpt>
      <trkpt lat="45.96044" lon="4.51986">
        <ele>313</ele>
        <time>2022-01-05T11:45:34Z</time>
      </trkpt>
      <trkpt lat="45.96044" lon="4.51958">
        <ele>311</ele>
        <time>2022-01-05T11:46:00Z</time>
      </trkpt>
      <trkpt lat="45.9606" lon="4.51838">
        <ele>302</ele>
        <time>2022-01-05T11:47:53Z</time>
      </trkpt>
      <trkpt lat="45.96099" lon="4.5177">
        <ele>299</ele>
        <time>2022-01-05T11:49:15Z</time>
      </trkpt>
      <trkpt lat="45.9612" lon="4.51714">
        <ele>296</ele>
        <time>2022-01-05T11:50:14Z</time>
      </trkpt>
      <trkpt lat="45.96123" lon="4.51683">
        <ele>293</ele>
        <time>2022-01-05T11:50:43Z</time>
      </trkpt>
      <trkpt lat="45.96121" lon="4.51666">
        <ele>291</ele>
        <time>2022-01-05T11:50:59Z</time>
      </trkpt>
      <trkpt lat="45.96112" lon="4.51679">
        <ele>292</ele>
        <time>2022-01-05T11:51:16Z</time>
      </trkpt>
      <trkpt lat="45.96036" lon="4.5174">
        <ele>291</ele>
        <time>2022-01-05T11:53:12Z</time>
      </trkpt>
      <trkpt lat="45.95972" lon="4.51802">
        <ele>291</ele>
        <time>2022-01-05T11:54:55Z</time>
      </trkpt>
      <trkpt lat="45.95915" lon="4.51872">
        <ele>288</ele>
        <time>2022-01-05T11:56:35Z</time>
      </trkpt>
      <trkpt lat="45.9589" lon="4.51908">
        <ele>288</ele>
        <time>2022-01-05T11:57:23Z</time>
      </trkpt>
    </trkseg>
  </trk>
</gpx>